sensor_id;sensor_type;location;lat;lon;timestamp;pressure;altitude;pressure_sealevel;temperature;humidity
76321;BME280;65132;52.088;5.402;2022-12-07T00:01:37;101862.41;;;2.69;95.85
76321;BME280;65132;52.088;5.402;2022-12-07T00:04:05;101800.72;;;2.55;95.45
76321;BME280;65132;52.088;5.402;2022-12-07T00:06:41;101937.91;;;3.31;95.08
76321;BME280;65132;52.088;5.402;2022-12-07T00:09:11;101801.72;;;2.53;94.98
76321;BME280;65132;52.088;5.402;2022-12-07T00:11:39;101924.81;;;3.25;96.04
76321;BME280;65132;52.088;5.402;2022-12-07T00:14:08;101943.50;;;3.45;95.80
76321;BME280;65132;52.088;5.402;2022-12-07T00:16:36;101901.91;;;3.01;94.94
76321;BME280;65132;52.088;5.402;2022-12-07T00:19:03;101929.50;;;3.20;94.61
76321;BME280;65132;52.088;5.402;2022-12-07T00:21:33;101845.06;;;2.59;94.34
76321;BME280;65132;52.088;5.402;2022-12-07T00:24:01;101774.25;;;2.30;94.78
76321;BME280;65132;52.088;5.402;2022-12-07T00:26:34;101862.34;;;2.71;94.12
76321;BME280;65132;52.088;5.402;2022-12-07T00:29:07;101864.91;;;2.54;94.99
76321;BME280;65132;52.088;5.402;2022-12-07T00:31:43;101963.19;;;3.06;94.88
76321;BME280;65132;52.088;5.402;2022-12-07T00:34:15;101865.44;;;2.62;94.68
76321;BME280;65132;52.088;5.402;2022-12-07T00:36:44;101922.34;;;3.02;96.51
76321;BME280;65132;52.088;5.402;2022-12-07T00:39:25;101933.19;;;2.99;95.71
76321;BME280;65132;52.088;5.402;2022-12-07T00:41:51;101833.28;;;2.24;95.40
76321;BME280;65132;52.088;5.402;2022-12-07T00:44:18;101861.75;;;2.64;96.68
76321;BME280;65132;52.088;5.402;2022-12-07T00:46:47;101857.78;;;2.73;96.97
76321;BME280;65132;52.088;5.402;2022-12-07T00:49:14;101854.63;;;2.83;97.23
76321;BME280;65132;52.088;5.402;2022-12-07T00:51:40;101918.16;;;3.15;96.90
76321;BME280;65132;52.088;5.402;2022-12-07T00:54:07;101902.84;;;3.00;96.98
76321;BME280;65132;52.088;5.402;2022-12-07T00:56:33;101795.22;;;2.39;96.51
76321;BME280;65132;52.088;5.402;2022-12-07T00:59:02;101739.25;;;2.18;96.77
76321;BME280;65132;52.088;5.402;2022-12-07T01:01:34;101756.38;;;2.32;97.20
76321;BME280;65132;52.088;5.402;2022-12-07T01:04:02;101818.56;;;2.55;96.09
76321;BME280;65132;52.088;5.402;2022-12-07T01:06:29;101841.09;;;2.68;96.23
76321;BME280;65132;52.088;5.402;2022-12-07T01:09:00;101844.22;;;2.59;95.66
76321;BME280;65132;52.088;5.402;2022-12-07T01:11:28;101854.16;;;2.55;94.97
76321;BME280;65132;52.088;5.402;2022-12-07T01:13:57;101912.53;;;2.83;95.08
76321;BME280;65132;52.088;5.402;2022-12-07T01:16:26;101903.94;;;2.76;95.46
76321;BME280;65132;52.088;5.402;2022-12-07T01:18:54;101825.34;;;2.23;96.00
76321;BME280;65132;52.088;5.402;2022-12-07T01:21:23;101848.28;;;2.27;95.12
76321;BME280;65132;52.088;5.402;2022-12-07T01:23:57;101818.19;;;2.03;94.84
76321;BME280;65132;52.088;5.402;2022-12-07T01:26:26;101829.47;;;2.10;95.51
76321;BME280;65132;52.088;5.402;2022-12-07T01:28:54;101884.25;;;2.38;95.88
76321;BME280;65132;52.088;5.402;2022-12-07T01:31:23;101908.66;;;2.51;95.96
76321;BME280;65132;52.088;5.402;2022-12-07T01:33:52;101904.25;;;2.50;95.48
76321;BME280;65132;52.088;5.402;2022-12-07T01:36:23;101920.53;;;2.64;95.17
76321;BME280;65132;52.088;5.402;2022-12-07T01:38:53;101792.19;;;1.88;96.02
76321;BME280;65132;52.088;5.402;2022-12-07T01:41:29;101862.72;;;2.23;95.88
76321;BME280;65132;52.088;5.402;2022-12-07T01:46:49;101920.66;;;2.61;96.07
76321;BME280;65132;52.088;5.402;2022-12-07T01:52:03;101910.72;;;2.44;95.95
76321;BME280;65132;52.088;5.402;2022-12-07T01:54:34;101883.53;;;2.35;95.87
76321;BME280;65132;52.088;5.402;2022-12-07T01:57:01;101899.91;;;2.47;96.60
76321;BME280;65132;52.088;5.402;2022-12-07T01:59:29;101870.91;;;2.18;95.32
76321;BME280;65132;52.088;5.402;2022-12-07T02:01:56;101870.38;;;2.10;94.76
76321;BME280;65132;52.088;5.402;2022-12-07T02:04:23;101838.34;;;1.70;94.94
76321;BME280;65132;52.088;5.402;2022-12-07T02:06:55;101844.34;;;1.95;95.25
76321;BME280;65132;52.088;5.402;2022-12-07T02:09:23;101860.31;;;1.97;95.02
76321;BME280;65132;52.088;5.402;2022-12-07T02:11:50;101838.34;;;1.70;96.13
76321;BME280;65132;52.088;5.402;2022-12-07T02:14:17;101884.53;;;2.12;95.93
76321;BME280;65132;52.088;5.402;2022-12-07T02:17:01;101891.75;;;2.10;96.15
76321;BME280;65132;52.088;5.402;2022-12-07T02:28:27;101915.78;;;2.51;97.22
76321;BME280;65132;52.088;5.402;2022-12-07T02:31:00;101783.44;;;1.85;97.36
76321;BME280;65132;52.088;5.402;2022-12-07T02:33:33;101857.84;;;2.32;97.05
76321;BME280;65132;52.088;5.402;2022-12-07T02:36:08;101749.72;;;1.82;97.58
76321;BME280;65132;52.088;5.402;2022-12-07T02:38:44;101856.06;;;2.33;97.70
76321;BME280;65132;52.088;5.402;2022-12-07T02:41:22;101855.50;;;2.45;96.67
76321;BME280;65132;52.088;5.402;2022-12-07T02:43:54;101868.53;;;2.32;97.30
76321;BME280;65132;52.088;5.402;2022-12-07T02:46:32;101788.31;;;2.15;96.63
76321;BME280;65132;52.088;5.402;2022-12-07T02:49:02;101782.41;;;1.87;96.58
76321;BME280;65132;52.088;5.402;2022-12-07T02:51:31;101843.06;;;2.44;96.76
76321;BME280;65132;52.088;5.402;2022-12-07T02:53:58;101841.41;;;2.41;96.26
76321;BME280;65132;52.088;5.402;2022-12-07T02:56:34;101753.47;;;1.98;96.38
76321;BME280;65132;52.088;5.402;2022-12-07T03:02:06;101902.03;;;2.98;97.44
76321;BME280;65132;52.088;5.402;2022-12-07T03:05:05;101873.75;;;2.74;97.05
76321;BME280;65132;52.088;5.402;2022-12-07T03:08:02;101910.44;;;3.09;97.45
76321;BME280;65132;52.088;5.402;2022-12-07T03:13:22;101856.38;;;2.84;95.94
76321;BME280;65132;52.088;5.402;2022-12-07T03:18:22;101776.50;;;2.21;96.09
76321;BME280;65132;52.088;5.402;2022-12-07T03:20:53;101846.41;;;3.06;97.46
76321;BME280;65132;52.088;5.402;2022-12-07T03:23:27;101739.38;;;2.54;97.23
76321;BME280;65132;52.088;5.402;2022-12-07T03:25:58;101802.13;;;3.01;97.14
76321;BME280;65132;52.088;5.402;2022-12-07T03:28:31;101826.44;;;3.13;97.08
76321;BME280;65132;52.088;5.402;2022-12-07T03:31:05;101763.59;;;2.86;96.15
76321;BME280;65132;52.088;5.402;2022-12-07T03:36:29;101795.63;;;3.06;96.30
76321;BME280;65132;52.088;5.402;2022-12-07T03:41:48;101872.19;;;3.44;96.32
76321;BME280;65132;52.088;5.402;2022-12-07T03:44:18;101780.94;;;2.96;96.49
76321;BME280;65132;52.088;5.402;2022-12-07T03:47:01;101872.09;;;3.46;95.75
76321;BME280;65132;52.088;5.402;2022-12-07T03:49:51;101879.56;;;3.39;96.46
76321;BME280;65132;52.088;5.402;2022-12-07T03:55:06;101879.72;;;3.18;95.78
76321;BME280;65132;52.088;5.402;2022-12-07T03:57:35;101876.41;;;3.13;96.27
76321;BME280;65132;52.088;5.402;2022-12-07T04:00:04;101853.75;;;2.83;95.76
76321;BME280;65132;52.088;5.402;2022-12-07T04:02:31;101875.28;;;2.98;96.50
76321;BME280;65132;52.088;5.402;2022-12-07T04:05:00;101861.19;;;2.95;96.17
76321;BME280;65132;52.088;5.402;2022-12-07T04:07:27;101862.66;;;3.02;96.92
76321;BME280;65132;52.088;5.402;2022-12-07T04:09:54;101857.59;;;2.96;96.31
76321;BME280;65132;52.088;5.402;2022-12-07T04:12:21;101729.00;;;2.27;96.54
76321;BME280;65132;52.088;5.402;2022-12-07T04:14:48;101802.38;;;2.58;96.83
76321;BME280;65132;52.088;5.402;2022-12-07T04:17:14;101799.22;;;2.68;96.95
76321;BME280;65132;52.088;5.402;2022-12-07T04:19:42;101868.81;;;3.22;97.40
76321;BME280;65132;52.088;5.402;2022-12-07T04:22:09;101842.72;;;3.09;96.64
76321;BME280;65132;52.088;5.402;2022-12-07T04:24:35;101858.09;;;3.22;96.84
76321;BME280;65132;52.088;5.402;2022-12-07T04:27:02;101796.94;;;2.98;96.50
76321;BME280;65132;52.088;5.402;2022-12-07T04:29:31;101858.47;;;3.33;96.99
76321;BME280;65132;52.088;5.402;2022-12-07T04:31:58;101800.81;;;3.09;97.12
76321;BME280;65132;52.088;5.402;2022-12-07T04:34:26;101852.66;;;3.42;96.73
76321;BME280;65132;52.088;5.402;2022-12-07T04:36:54;101819.03;;;3.20;97.25
76321;BME280;65132;52.088;5.402;2022-12-07T04:39:26;101867.88;;;3.42;96.91
76321;BME280;65132;52.088;5.402;2022-12-07T04:41:53;101775.59;;;2.78;96.60
76321;BME280;65132;52.088;5.402;2022-12-07T04:44:21;101769.91;;;2.67;96.32
76321;BME280;65132;52.088;5.402;2022-12-07T04:46:48;101760.28;;;2.81;96.64
76321;BME280;65132;52.088;5.402;2022-12-07T04:49:21;101892.13;;;3.37;96.60
76321;BME280;65132;52.088;5.402;2022-12-07T04:51:51;101763.59;;;2.49;96.17
76321;BME280;65132;52.088;5.402;2022-12-07T04:54:20;101807.16;;;3.07;96.76
76321;BME280;65132;52.088;5.402;2022-12-07T04:56:47;101800.22;;;3.21;96.22
76321;BME280;65132;52.088;5.402;2022-12-07T04:59:16;101802.59;;;3.27;96.63
76321;BME280;65132;52.088;5.402;2022-12-07T05:01:43;101796.50;;;3.24;96.37
76321;BME280;65132;52.088;5.402;2022-12-07T05:04:10;101789.78;;;3.34;94.66
76321;BME280;65132;52.088;5.402;2022-12-07T05:06:37;101780.38;;;3.25;95.05
76321;BME280;65132;52.088;5.402;2022-12-07T05:09:04;101817.34;;;3.53;95.04
76321;BME280;65132;52.088;5.402;2022-12-07T05:11:31;101826.41;;;3.50;94.58
76321;BME280;65132;52.088;5.402;2022-12-07T05:13:57;101836.88;;;3.55;95.00
76321;BME280;65132;52.088;5.402;2022-12-07T05:16:24;101777.47;;;3.13;94.66
76321;BME280;65132;52.088;5.402;2022-12-07T05:18:51;101831.19;;;3.44;94.60
76321;BME280;65132;52.088;5.402;2022-12-07T05:21:18;101828.41;;;3.28;94.29
76321;BME280;65132;52.088;5.402;2022-12-07T05:23:44;101808.53;;;3.15;95.07
76321;BME280;65132;52.088;5.402;2022-12-07T05:26:11;101758.84;;;2.74;94.83
76321;BME280;65132;52.088;5.402;2022-12-07T05:28:38;101797.78;;;2.80;94.49
76321;BME280;65132;52.088;5.402;2022-12-07T05:31:04;101782.59;;;2.62;94.53
76321;BME280;65132;52.088;5.402;2022-12-07T05:33:31;101834.41;;;2.96;94.86
76321;BME280;65132;52.088;5.402;2022-12-07T05:35:58;101859.06;;;3.03;94.94
76321;BME280;65132;52.088;5.402;2022-12-07T05:38:24;101782.44;;;2.46;94.93
76321;BME280;65132;52.088;5.402;2022-12-07T05:40:52;101798.97;;;2.54;94.76
76321;BME280;65132;52.088;5.402;2022-12-07T05:43:21;101775.78;;;2.36;95.20
76321;BME280;65132;52.088;5.402;2022-12-07T05:45:47;101836.84;;;2.64;95.11
76321;BME280;65132;52.088;5.402;2022-12-07T05:48:13;101863.28;;;2.70;95.01
76321;BME280;65132;52.088;5.402;2022-12-07T05:50:40;101837.53;;;2.49;95.29
76321;BME280;65132;52.088;5.402;2022-12-07T05:53:06;101836.72;;;2.26;95.12
76321;BME280;65132;52.088;5.402;2022-12-07T05:55:33;101787.72;;;2.09;95.71
76321;BME280;65132;52.088;5.402;2022-12-07T05:57:59;101821.00;;;2.20;95.59
76321;BME280;65132;52.088;5.402;2022-12-07T06:00:26;101856.56;;;2.41;95.72
76321;BME280;65132;52.088;5.402;2022-12-07T06:02:52;101850.50;;;2.37;95.88
76321;BME280;65132;52.088;5.402;2022-12-07T06:05:19;101760.53;;;1.79;95.38
76321;BME280;65132;52.088;5.402;2022-12-07T06:07:45;101805.00;;;2.00;95.88
76321;BME280;65132;52.088;5.402;2022-12-07T06:10:12;101834.50;;;2.17;96.20
76321;BME280;65132;52.088;5.402;2022-12-07T06:12:38;101853.16;;;2.37;96.81
76321;BME280;65132;52.088;5.402;2022-12-07T06:15:11;101861.91;;;2.41;96.19
76321;BME280;65132;52.088;5.402;2022-12-07T06:17:37;101773.22;;;1.94;96.89
76321;BME280;65132;52.088;5.402;2022-12-07T06:20:05;101847.59;;;2.42;97.06
76321;BME280;65132;52.088;5.402;2022-12-07T06:22:31;101792.25;;;2.07;96.34
76321;BME280;65132;52.088;5.402;2022-12-07T06:24:59;101818.47;;;2.17;96.49
76321;BME280;65132;52.088;5.402;2022-12-07T06:27:33;101766.56;;;1.84;96.06
76321;BME280;65132;52.088;5.402;2022-12-07T06:30:00;101771.81;;;1.86;96.40
76321;BME280;65132;52.088;5.402;2022-12-07T06:32:27;101807.31;;;2.08;96.04
76321;BME280;65132;52.088;5.402;2022-12-07T06:34:54;101828.78;;;2.25;96.11
76321;BME280;65132;52.088;5.402;2022-12-07T06:37:21;101771.56;;;1.92;96.05
76321;BME280;65132;52.088;5.402;2022-12-07T06:39:48;101768.53;;;1.99;96.81
76321;BME280;65132;52.088;5.402;2022-12-07T06:42:14;101811.34;;;2.18;96.55
76321;BME280;65132;52.088;5.402;2022-12-07T06:44:41;101871.53;;;2.45;95.35
76321;BME280;65132;52.088;5.402;2022-12-07T06:47:08;101805.38;;;2.11;96.23
76321;BME280;65132;52.088;5.402;2022-12-07T06:49:54;101889.16;;;2.49;95.58
76321;BME280;65132;52.088;5.402;2022-12-07T06:52:21;101849.38;;;2.43;96.13
76321;BME280;65132;52.088;5.402;2022-12-07T06:54:47;101813.19;;;2.16;96.47
76321;BME280;65132;52.088;5.402;2022-12-07T06:57:14;101820.94;;;2.02;96.42
76321;BME280;65132;52.088;5.402;2022-12-07T06:59:41;101753.28;;;1.63;96.83
76321;BME280;65132;52.088;5.402;2022-12-07T07:02:08;101823.00;;;2.15;96.37
76321;BME280;65132;52.088;5.402;2022-12-07T07:04:36;101833.38;;;2.23;96.33
76321;BME280;65132;52.088;5.402;2022-12-07T07:07:03;101880.69;;;2.39;96.28
76321;BME280;65132;52.088;5.402;2022-12-07T07:09:30;101867.66;;;2.32;96.87
76321;BME280;65132;52.088;5.402;2022-12-07T07:11:57;101695.72;;;1.37;97.11
76321;BME280;65132;52.088;5.402;2022-12-07T07:14:24;101711.41;;;1.45;96.22
76321;BME280;65132;52.088;5.402;2022-12-07T07:16:52;101701.66;;;1.44;97.03
76321;BME280;65132;52.088;5.402;2022-12-07T07:19:19;101890.63;;;2.36;97.05
76321;BME280;65132;52.088;5.402;2022-12-07T07:21:45;101854.59;;;2.26;96.40
76321;BME280;65132;52.088;5.402;2022-12-07T07:24:12;101781.69;;;1.64;95.91
76321;BME280;65132;52.088;5.402;2022-12-07T07:26:39;101773.28;;;1.73;96.37
76321;BME280;65132;52.088;5.402;2022-12-07T07:29:09;101773.22;;;1.74;95.81
76321;BME280;65132;52.088;5.402;2022-12-07T07:31:38;101811.38;;;1.76;95.83
76321;BME280;65132;52.088;5.402;2022-12-07T07:34:04;101834.66;;;1.93;95.43
76321;BME280;65132;52.088;5.402;2022-12-07T07:36:32;101831.69;;;1.80;95.53
76321;BME280;65132;52.088;5.402;2022-12-07T07:38:59;101805.63;;;1.65;95.63
76321;BME280;65132;52.088;5.402;2022-12-07T07:41:30;101870.25;;;1.93;95.90
76321;BME280;65132;52.088;5.402;2022-12-07T07:44:15;101701.69;;;1.02;95.79
76321;BME280;65132;52.088;5.402;2022-12-07T07:46:41;101898.41;;;2.00;96.35
76321;BME280;65132;52.088;5.402;2022-12-07T07:51:46;101875.94;;;2.06;95.80
76321;BME280;65132;52.088;5.402;2022-12-07T07:54:13;101829.19;;;1.76;95.92
76321;BME280;65132;52.088;5.402;2022-12-07T07:56:40;101880.69;;;2.19;95.71
76321;BME280;65132;52.088;5.402;2022-12-07T07:59:10;101884.03;;;2.24;95.35
76321;BME280;65132;52.088;5.402;2022-12-07T08:01:37;101876.69;;;2.29;94.84
76321;BME280;65132;52.088;5.402;2022-12-07T08:04:07;101814.34;;;2.10;94.40
76321;BME280;65132;52.088;5.402;2022-12-07T08:06:35;101864.91;;;2.54;93.64
76321;BME280;65132;52.088;5.402;2022-12-07T08:09:02;101861.19;;;2.76;92.99
76321;BME280;65132;52.088;5.402;2022-12-07T08:11:31;101855.59;;;3.01;92.95
76321;BME280;65132;52.088;5.402;2022-12-07T08:14:01;101867.94;;;3.40;90.92
76321;BME280;65132;52.088;5.402;2022-12-07T08:16:35;101758.06;;;2.72;89.15
76321;BME280;65132;52.088;5.402;2022-12-07T08:19:12;101783.81;;;3.10;88.01
76321;BME280;65132;52.088;5.402;2022-12-07T08:21:42;101886.66;;;3.59;88.02
76321;BME280;65132;52.088;5.402;2022-12-07T08:24:23;101829.69;;;3.38;88.71
76321;BME280;65132;52.088;5.402;2022-12-07T08:26:50;101885.25;;;3.69;88.57
76321;BME280;65132;52.088;5.402;2022-12-07T08:29:20;101856.22;;;4.30;86.32
76321;BME280;65132;52.088;5.402;2022-12-07T08:31:54;101841.06;;;4.78;84.61
76321;BME280;65132;52.088;5.402;2022-12-07T08:34:42;101878.88;;;6.00;82.35
76321;BME280;65132;52.088;5.402;2022-12-07T08:37:08;101867.81;;;6.20;81.26
76321;BME280;65132;52.088;5.402;2022-12-07T08:39:35;101876.44;;;6.11;80.99
76321;BME280;65132;52.088;5.402;2022-12-07T08:42:01;101869.09;;;5.68;83.92
76321;BME280;65132;52.088;5.402;2022-12-07T08:44:27;101855.97;;;6.08;82.43
76321;BME280;65132;52.088;5.402;2022-12-07T08:46:58;101867.78;;;6.50;82.10
76321;BME280;65132;52.088;5.402;2022-12-07T08:49:31;101866.00;;;7.06;78.89
76321;BME280;65132;52.088;5.402;2022-12-07T08:51:59;101852.63;;;6.63;79.78
76321;BME280;65132;52.088;5.402;2022-12-07T08:54:25;101861.94;;;6.57;81.48
76321;BME280;65132;52.088;5.402;2022-12-07T08:56:53;101867.47;;;6.40;82.73
76321;BME280;65132;52.088;5.402;2022-12-07T08:59:26;101876.19;;;6.30;82.41
76321;BME280;65132;52.088;5.402;2022-12-07T09:01:53;101885.19;;;6.15;83.05
76321;BME280;65132;52.088;5.402;2022-12-07T09:04:20;101883.47;;;5.82;84.43
76321;BME280;65132;52.088;5.402;2022-12-07T09:06:46;101878.72;;;5.56;85.84
76321;BME280;65132;52.088;5.402;2022-12-07T09:09:14;101875.94;;;5.42;86.44
76321;BME280;65132;52.088;5.402;2022-12-07T09:11:40;101884.50;;;5.33;87.21
76321;BME280;65132;52.088;5.402;2022-12-07T09:14:08;101884.97;;;5.41;87.25
76321;BME280;65132;52.088;5.402;2022-12-07T09:16:34;101875.34;;;5.37;87.34
76321;BME280;65132;52.088;5.402;2022-12-07T09:19:02;101872.03;;;5.94;86.06
76321;BME280;65132;52.088;5.402;2022-12-07T09:21:28;101875.78;;;6.22;84.84
76321;BME280;65132;52.088;5.402;2022-12-07T09:23:55;101864.94;;;6.95;82.62
76321;BME280;65132;52.088;5.402;2022-12-07T09:26:22;101876.09;;;7.03;82.05
76321;BME280;65132;52.088;5.402;2022-12-07T09:28:48;101869.38;;;6.96;81.02
76321;BME280;65132;52.088;5.402;2022-12-07T09:31:14;101882.44;;;7.16;81.14
76321;BME280;65132;52.088;5.402;2022-12-07T09:34:00;101878.38;;;7.23;80.94
76321;BME280;65132;52.088;5.402;2022-12-07T09:36:27;101880.63;;;7.02;80.83
76321;BME280;65132;52.088;5.402;2022-12-07T09:38:54;101877.53;;;6.94;82.01
76321;BME280;65132;52.088;5.402;2022-12-07T09:41:23;101868.59;;;6.80;83.52
76321;BME280;65132;52.088;5.402;2022-12-07T09:43:51;101875.50;;;6.70;83.47
76321;BME280;65132;52.088;5.402;2022-12-07T09:46:20;101875.41;;;6.71;84.35
76321;BME280;65132;52.088;5.402;2022-12-07T09:48:48;101859.94;;;6.75;83.91
76321;BME280;65132;52.088;5.402;2022-12-07T09:51:19;101868.97;;;7.02;82.94
76321;BME280;65132;52.088;5.402;2022-12-07T09:53:51;101864.72;;;7.40;80.94
76321;BME280;65132;52.088;5.402;2022-12-07T09:56:19;101856.84;;;7.37;79.83
76321;BME280;65132;52.088;5.402;2022-12-07T09:58:46;101856.88;;;6.95;82.69
76321;BME280;65132;52.088;5.402;2022-12-07T10:01:18;101869.53;;;7.21;81.56
76321;BME280;65132;52.088;5.402;2022-12-07T10:03:53;101874.34;;;7.16;81.64
76321;BME280;65132;52.088;5.402;2022-12-07T10:06:20;101860.44;;;7.50;81.21
76321;BME280;65132;52.088;5.402;2022-12-07T10:08:47;101858.63;;;7.77;79.28
76321;BME280;65132;52.088;5.402;2022-12-07T10:11:14;101858.63;;;7.51;78.24
76321;BME280;65132;52.088;5.402;2022-12-07T10:13:43;101847.59;;;7.27;79.29
76321;BME280;65132;52.088;5.402;2022-12-07T10:16:39;101861.00;;;7.00;82.01
76321;BME280;65132;52.088;5.402;2022-12-07T10:19:31;101857.81;;;6.80;83.09
76321;BME280;65132;52.088;5.402;2022-12-07T10:22:12;101847.25;;;6.63;82.09
76321;BME280;65132;52.088;5.402;2022-12-07T10:24:40;101851.38;;;6.68;82.60
76321;BME280;65132;52.088;5.402;2022-12-07T10:27:33;101839.38;;;6.88;81.29
76321;BME280;65132;52.088;5.402;2022-12-07T10:30:14;101837.09;;;6.96;80.58
76321;BME280;65132;52.088;5.402;2022-12-07T10:32:40;101834.09;;;7.00;81.68
76321;BME280;65132;52.088;5.402;2022-12-07T10:35:27;101829.94;;;7.23;80.67
76321;BME280;65132;52.088;5.402;2022-12-07T10:37:55;101832.88;;;7.32;80.87
76321;BME280;65132;52.088;5.402;2022-12-07T10:40:26;101824.25;;;7.13;80.85
76321;BME280;65132;52.088;5.402;2022-12-07T10:49:03;101816.47;;;10.68;68.56
76321;BME280;65132;52.088;5.402;2022-12-07T10:51:45;101813.91;;;11.11;65.98
76321;BME280;65132;52.088;5.402;2022-12-07T10:54:42;101815.56;;;10.46;67.66
76321;BME280;65132;52.088;5.402;2022-12-07T11:00:23;101804.75;;;11.34;66.68
76321;BME280;65132;52.088;5.402;2022-12-07T11:05:56;101793.56;;;11.39;65.15
76321;BME280;65132;52.088;5.402;2022-12-07T11:11:27;101800.72;;;10.84;66.62
76321;BME280;65132;52.088;5.402;2022-12-07T11:14:28;101800.41;;;9.74;69.67
76321;BME280;65132;52.088;5.402;2022-12-07T11:19:43;101804.09;;;9.13;73.01
76321;BME280;65132;52.088;5.402;2022-12-07T11:22:16;101804.91;;;8.65;74.57
76321;BME280;65132;52.088;5.402;2022-12-07T11:27:57;101793.38;;;7.86;76.51
76321;BME280;65132;52.088;5.402;2022-12-07T11:30:38;101785.66;;;7.68;77.86
76321;BME280;65132;52.088;5.402;2022-12-07T11:33:31;101788.97;;;7.59;79.74
76321;BME280;65132;52.088;5.402;2022-12-07T11:36:08;101783.75;;;7.29;80.78
76321;BME280;65132;52.088;5.402;2022-12-07T11:38:58;101779.56;;;7.25;80.51
76321;BME280;65132;52.088;5.402;2022-12-07T11:41:35;101768.78;;;7.25;81.23
76321;BME280;65132;52.088;5.402;2022-12-07T11:44:31;101767.47;;;7.18;79.91
76321;BME280;65132;52.088;5.402;2022-12-07T11:47:00;101764.56;;;7.21;80.71
76321;BME280;65132;52.088;5.402;2022-12-07T11:49:45;101763.25;;;8.31;76.02
76321;BME280;65132;52.088;5.402;2022-12-07T11:52:20;101761.78;;;8.89;73.81
76321;BME280;65132;52.088;5.402;2022-12-07T11:54:50;101762.94;;;9.10;74.42
76321;BME280;65132;52.088;5.402;2022-12-07T11:57:33;101761.63;;;9.15;72.74
76321;BME280;65132;52.088;5.402;2022-12-07T12:00:15;101752.84;;;10.63;69.07
76321;BME280;65132;52.088;5.402;2022-12-07T12:03:01;101753.34;;;12.48;62.69
76321;BME280;65132;52.088;5.402;2022-12-07T12:05:30;101731.44;;;14.16;55.43
76321;BME280;65132;52.088;5.402;2022-12-07T12:08:12;101733.00;;;15.11;51.67
76321;BME280;65132;52.088;5.402;2022-12-07T12:17:22;101720.03;;;17.87;41.98
76321;BME280;65132;52.088;5.402;2022-12-07T12:20:06;101725.53;;;17.79;42.44
76321;BME280;65132;52.088;5.402;2022-12-07T12:22:46;101726.22;;;16.90;43.85
76321;BME280;65132;52.088;5.402;2022-12-07T12:25:27;101720.50;;;16.24;45.06
76321;BME280;65132;52.088;5.402;2022-12-07T12:27:57;101721.50;;;14.44;50.20
76321;BME280;65132;52.088;5.402;2022-12-07T12:30:26;101728.59;;;13.51;53.48
76321;BME280;65132;52.088;5.402;2022-12-07T12:33:01;101728.34;;;12.24;56.88
76321;BME280;65132;52.088;5.402;2022-12-07T12:35:37;101722.00;;;11.30;60.78
76321;BME280;65132;52.088;5.402;2022-12-07T12:40:55;101709.88;;;12.69;56.43
76321;BME280;65132;52.088;5.402;2022-12-07T12:43:51;101702.25;;;13.99;52.55
76321;BME280;65132;52.088;5.402;2022-12-07T12:51:44;101691.66;;;16.47;44.99
76321;BME280;65132;52.088;5.402;2022-12-07T12:54:14;101678.59;;;17.66;43.87
76321;BME280;65132;52.088;5.402;2022-12-07T12:56:51;101691.81;;;18.89;40.39
76321;BME280;65132;52.088;5.402;2022-12-07T12:59:23;101684.81;;;19.18;38.86
76321;BME280;65132;52.088;5.402;2022-12-07T13:01:54;101672.94;;;20.01;38.80
76321;BME280;65132;52.088;5.402;2022-12-07T13:04:28;101689.47;;;20.53;37.50
76321;BME280;65132;52.088;5.402;2022-12-07T13:06:57;101673.84;;;20.16;39.32
76321;BME280;65132;52.088;5.402;2022-12-07T13:09:28;101672.03;;;19.41;36.33
76321;BME280;65132;52.088;5.402;2022-12-07T13:12:04;101696.25;;;18.90;40.70
76321;BME280;65132;52.088;5.402;2022-12-07T13:17:03;101690.13;;;15.04;46.75
76321;BME280;65132;52.088;5.402;2022-12-07T13:25:03;101654.97;;;13.91;51.76
76321;BME280;65132;52.088;5.402;2022-12-07T13:27:31;101663.13;;;13.81;53.59
76321;BME280;65132;52.088;5.402;2022-12-07T13:29:58;101660.06;;;14.22;52.51
76321;BME280;65132;52.088;5.402;2022-12-07T13:32:28;101646.69;;;13.26;53.63
76321;BME280;65132;52.088;5.402;2022-12-07T13:34:55;101658.53;;;12.56;58.83
76321;BME280;65132;52.088;5.402;2022-12-07T13:37:27;101652.91;;;12.18;60.41
76321;BME280;65132;52.088;5.402;2022-12-07T13:40:19;101648.50;;;10.81;65.98
76321;BME280;65132;52.088;5.402;2022-12-07T13:42:46;101645.69;;;10.49;64.65
76321;BME280;65132;52.088;5.402;2022-12-07T13:45:30;101643.97;;;10.15;67.31
76321;BME280;65132;52.088;5.402;2022-12-07T13:47:58;101647.38;;;10.06;67.47
76321;BME280;65132;52.088;5.402;2022-12-07T13:50:29;101648.88;;;10.10;68.65
76321;BME280;65132;52.088;5.402;2022-12-07T13:52:57;101641.78;;;10.09;67.77
76321;BME280;65132;52.088;5.402;2022-12-07T13:55:27;101633.13;;;10.04;69.26
76321;BME280;65132;52.088;5.402;2022-12-07T13:57:55;101637.44;;;9.50;73.46
76321;BME280;65132;52.088;5.402;2022-12-07T14:00:29;101645.44;;;9.28;75.04
76321;BME280;65132;52.088;5.402;2022-12-07T14:03:02;101632.66;;;9.19;74.41
76321;BME280;65132;52.088;5.402;2022-12-07T14:05:31;101645.06;;;8.98;73.86
76321;BME280;65132;52.088;5.402;2022-12-07T14:08:21;101635.41;;;8.83;74.70
76321;BME280;65132;52.088;5.402;2022-12-07T14:13:32;101633.25;;;8.75;73.19
76321;BME280;65132;52.088;5.402;2022-12-07T14:16:00;101627.47;;;8.32;74.50
76321;BME280;65132;52.088;5.402;2022-12-07T14:18:37;101625.09;;;8.15;74.28
76321;BME280;65132;52.088;5.402;2022-12-07T14:23:38;101622.41;;;7.90;74.58
76321;BME280;65132;52.088;5.402;2022-12-07T14:26:19;101620.47;;;7.67;76.25
76321;BME280;65132;52.088;5.402;2022-12-07T14:28:46;101612.69;;;7.50;77.22
76321;BME280;65132;52.088;5.402;2022-12-07T14:31:16;101613.56;;;7.51;77.92
76321;BME280;65132;52.088;5.402;2022-12-07T14:33:54;101615.47;;;7.36;76.33
76321;BME280;65132;52.088;5.402;2022-12-07T14:36:20;101609.53;;;7.31;76.78
76321;BME280;65132;52.088;5.402;2022-12-07T14:38:47;101612.09;;;7.20;80.55
76321;BME280;65132;52.088;5.402;2022-12-07T14:41:17;101615.25;;;7.26;79.83
76321;BME280;65132;52.088;5.402;2022-12-07T14:43:47;101597.00;;;7.17;80.47